createdAt,value
2023-04-29T00:01:37.111Z,4.30
2023-04-29T00:04:09.635Z,4.32
2023-04-29T00:06:42.262Z,4.32
2023-04-29T00:09:14.638Z,4.39
2023-04-29T00:11:47.237Z,4.41
2023-04-29T00:14:20.379Z,4.24
2023-04-29T00:16:52.813Z,4.20
2023-04-29T00:19:25.278Z,4.14
2023-04-29T00:21:57.642Z,4.12
2023-04-29T00:24:29.963Z,4.13
2023-04-29T00:27:02.470Z,4.12
2023-04-29T00:29:36.170Z,4.09
2023-04-29T00:32:08.627Z,4.00
2023-04-29T00:34:40.910Z,4.01
2023-04-29T00:37:13.278Z,3.92
2023-04-29T00:39:45.586Z,3.91
2023-04-29T00:42:19.018Z,3.92
2023-04-29T00:44:51.982Z,3.79
2023-04-29T00:47:24.380Z,3.86
2023-04-29T00:49:56.680Z,3.83
2023-04-29T00:52:30.865Z,3.81
2023-04-29T00:55:05.854Z,3.75
2023-04-29T00:57:39.085Z,3.57
2023-04-29T01:00:13.762Z,3.52
2023-04-29T01:02:56.304Z,3.46
2023-04-29T01:05:28.895Z,3.45
2023-04-29T01:08:18.379Z,3.44
2023-04-29T01:10:56.856Z,3.47
2023-04-29T01:13:31.066Z,3.45
2023-04-29T01:16:11.362Z,3.41
2023-04-29T01:18:49.563Z,3.39
2023-04-29T01:21:25.190Z,3.34
2023-04-29T01:23:58.213Z,3.36
2023-04-29T01:26:34.835Z,3.39
2023-04-29T01:29:28.334Z,3.37
2023-04-29T01:32:08.310Z,3.37
2023-04-29T01:34:47.413Z,3.38
2023-04-29T01:37:28.269Z,3.44
2023-04-29T01:40:10.020Z,3.38
2023-04-29T01:42:55.776Z,3.32
2023-04-29T01:45:29.439Z,3.18
2023-04-29T01:48:04.072Z,3.16
2023-04-29T01:50:36.967Z,3.09
2023-04-29T01:53:16.800Z,3.05
2023-04-29T01:55:51.037Z,3.05
2023-04-29T01:58:30.751Z,3.01
2023-04-29T02:01:13.588Z,2.97
2023-04-29T02:03:46.337Z,3.01
2023-04-29T02:06:20.871Z,3.03
2023-04-29T02:08:58.436Z,3.01
2023-04-29T02:11:31.511Z,3.07
2023-04-29T02:14:03.955Z,3.04
2023-04-29T02:16:36.364Z,2.88
2023-04-29T02:19:12.131Z,2.85
2023-04-29T02:21:45.135Z,2.75
2023-04-29T02:24:17.579Z,2.70
2023-04-29T02:26:54.070Z,2.68
2023-04-29T02:29:29.092Z,2.62
2023-04-29T02:32:01.519Z,2.64
2023-04-29T02:34:34.014Z,2.65
2023-04-29T02:37:06.768Z,2.68
2023-04-29T02:39:39.071Z,2.76
2023-04-29T02:42:12.579Z,2.80
2023-04-29T02:44:44.828Z,2.83
2023-04-29T02:47:17.194Z,2.76
2023-04-29T02:50:09.730Z,2.67
2023-04-29T02:53:00.871Z,2.56
2023-04-29T02:55:33.509Z,2.44
2023-04-29T02:58:12.529Z,2.52
2023-04-29T03:00:44.872Z,2.48
2023-04-29T03:03:17.342Z,2.50
2023-04-29T03:05:50.024Z,2.46
2023-04-29T03:08:22.360Z,2.49
2023-04-29T03:10:54.725Z,2.51
2023-04-29T03:13:27.723Z,2.47
2023-04-29T03:16:01.050Z,2.32
2023-04-29T03:18:33.533Z,2.31
2023-04-29T03:21:05.949Z,2.38
2023-04-29T03:23:39.468Z,2.31
2023-04-29T03:26:12.889Z,2.24
2023-04-29T03:28:45.916Z,2.22
2023-04-29T03:31:20.334Z,2.22
2023-04-29T03:33:52.990Z,2.22
2023-04-29T03:36:26.417Z,2.19
2023-04-29T03:39:31.480Z,2.23
2023-04-29T03:42:04.373Z,2.25
2023-04-29T03:44:37.387Z,2.29
2023-04-29T03:47:09.737Z,2.20
2023-04-29T03:49:42.155Z,2.08
2023-04-29T03:52:15.388Z,2.09
2023-04-29T03:54:48.194Z,2.05
2023-04-29T03:57:20.558Z,2.04
2023-04-29T03:59:53.911Z,2.11
2023-04-29T04:02:27.852Z,2.15
2023-04-29T04:05:01.296Z,2.17
2023-04-29T04:07:33.751Z,2.20
2023-04-29T04:10:37.744Z,2.31
2023-04-29T04:13:19.581Z,2.33
2023-04-29T04:15:53.663Z,2.38
2023-04-29T04:18:26.113Z,2.40
2023-04-29T04:20:58.445Z,2.41
2023-04-29T04:23:31.925Z,2.51
2023-04-29T04:26:04.380Z,2.60
2023-04-29T04:28:58.937Z,2.66
2023-04-29T04:31:40.374Z,2.70
2023-04-29T04:34:13.954Z,2.81
2023-04-29T04:36:46.394Z,2.91
2023-04-29T04:39:18.718Z,3.01
2023-04-29T04:41:51.195Z,3.18
2023-04-29T04:44:25.041Z,3.29
2023-04-29T04:47:12.111Z,3.32
2023-04-29T04:49:54.871Z,3.41
2023-04-29T04:52:27.798Z,3.53
2023-04-29T04:55:21.328Z,3.65
2023-04-29T04:57:55.748Z,3.72
2023-04-29T05:00:28.162Z,3.70
2023-04-29T05:03:01.611Z,3.72
2023-04-29T05:05:34.278Z,3.81
2023-04-29T05:08:07.166Z,3.83
2023-04-29T05:10:45.347Z,4.02
2023-04-29T05:13:18.741Z,4.15
2023-04-29T05:15:51.350Z,4.29
2023-04-29T05:18:28.408Z,4.47
2023-04-29T05:21:00.839Z,4.59
2023-04-29T05:23:33.119Z,4.59
2023-04-29T05:26:05.613Z,4.76
2023-04-29T05:28:37.917Z,4.88
2023-04-29T05:31:10.830Z,5.01
2023-04-29T05:33:43.904Z,5.13
2023-04-29T05:36:16.210Z,5.21
2023-04-29T05:38:48.654Z,5.38
2023-04-29T05:41:23.477Z,5.51
2023-04-29T05:44:02.001Z,5.68
2023-04-29T05:46:37.150Z,5.81
2023-04-29T05:49:10.532Z,5.94
2023-04-29T05:51:42.965Z,6.08
2023-04-29T05:54:15.612Z,6.24
2023-04-29T05:56:48.079Z,6.42
2023-04-29T05:59:20.431Z,6.61
2023-04-29T06:01:57.674Z,6.80
2023-04-29T06:04:31.193Z,7.02
2023-04-29T06:07:26.118Z,7.17
2023-04-29T06:10:17.550Z,7.21
2023-04-29T06:12:51.653Z,7.43
2023-04-29T06:15:24.145Z,7.62
2023-04-29T06:17:56.678Z,7.81
2023-04-29T06:20:29.736Z,7.99
2023-04-29T06:23:02.019Z,8.18
2023-04-29T06:25:34.628Z,8.46
2023-04-29T06:28:10.159Z,8.49
2023-04-29T06:30:42.945Z,8.61
2023-04-29T06:33:16.303Z,8.90
2023-04-29T06:35:49.304Z,8.94
2023-04-29T06:38:41.888Z,9.16
2023-04-29T06:41:52.689Z,9.19
2023-04-29T06:44:49.934Z,9.11
2023-04-29T06:47:33.582Z,9.06
2023-04-29T06:50:19.504Z,9.06
2023-04-29T06:52:52.567Z,9.12
2023-04-29T06:55:24.921Z,9.21
2023-04-29T06:57:57.430Z,9.34
2023-04-29T07:00:29.788Z,9.33
2023-04-29T07:03:02.548Z,9.51
2023-04-29T07:05:34.932Z,9.66
2023-04-29T07:08:09.661Z,9.93
2023-04-29T07:10:42.074Z,10.24
2023-04-29T07:13:14.402Z,10.46
2023-04-29T07:15:47.808Z,10.65
2023-04-29T07:18:20.197Z,10.48
2023-04-29T07:20:52.604Z,10.66
2023-04-29T07:23:25.629Z,10.81
2023-04-29T07:25:57.941Z,11.12
2023-04-29T07:28:30.390Z,11.35
2023-04-29T07:31:02.779Z,11.62
2023-04-29T07:33:36.035Z,12.21
2023-04-29T07:36:08.575Z,12.78
2023-04-29T07:38:42.016Z,12.79
2023-04-29T07:41:14.386Z,13.11
2023-04-29T07:43:46.788Z,13.42
2023-04-29T07:46:19.673Z,13.47
2023-04-29T07:48:52.777Z,13.62
2023-04-29T07:51:26.790Z,13.62
2023-04-29T07:54:00.060Z,14.00
2023-04-29T07:56:32.894Z,13.98
2023-04-29T07:59:05.886Z,14.17
2023-04-29T08:01:38.556Z,14.74
2023-04-29T08:04:11.240Z,14.95
2023-04-29T08:06:53.104Z,15.19
2023-04-29T08:09:26.207Z,15.16
2023-04-29T08:11:58.567Z,14.96
2023-04-29T08:14:31.001Z,15.29
2023-04-29T08:17:05.410Z,15.66
2023-04-29T08:19:37.908Z,15.60
2023-04-29T08:22:11.608Z,15.55
2023-04-29T08:24:44.736Z,15.43
2023-04-29T08:27:17.065Z,15.38
2023-04-29T08:29:49.441Z,15.44
2023-04-29T08:32:22.028Z,14.94
2023-04-29T08:34:54.689Z,14.65
2023-04-29T08:37:27.666Z,14.59
2023-04-29T08:40:01.070Z,14.77
2023-04-29T08:42:35.632Z,14.93
2023-04-29T08:45:08.931Z,15.18
2023-04-29T08:47:41.932Z,15.37
2023-04-29T08:50:14.316Z,15.16
2023-04-29T08:52:46.756Z,15.16
2023-04-29T08:55:19.845Z,15.00
2023-04-29T08:57:54.588Z,15.03
2023-04-29T09:00:26.975Z,15.15
2023-04-29T09:03:01.001Z,15.30
2023-04-29T09:05:35.778Z,15.11
2023-04-29T09:08:08.674Z,15.38
2023-04-29T09:10:42.859Z,15.68
2023-04-29T09:13:24.338Z,15.89
2023-04-29T09:15:57.259Z,15.88
2023-04-29T09:18:43.562Z,15.82
2023-04-29T09:21:19.646Z,16.03
2023-04-29T09:23:55.371Z,15.84
2023-04-29T09:26:40.803Z,15.84
2023-04-29T09:29:15.404Z,15.88
2023-04-29T09:31:48.353Z,15.91
2023-04-29T09:34:31.524Z,16.08
2023-04-29T09:37:03.981Z,15.88
2023-04-29T09:39:39.463Z,15.86
2023-04-29T09:42:12.565Z,15.95
2023-04-29T09:44:44.965Z,16.05
2023-04-29T09:47:17.435Z,15.98
2023-04-29T09:49:49.836Z,16.29
2023-04-29T09:52:22.322Z,16.09
2023-04-29T09:55:05.224Z,15.88
2023-04-29T09:57:43.353Z,16.09
2023-04-29T10:00:17.463Z,16.07
2023-04-29T10:02:50.449Z,16.24
2023-04-29T10:05:23.083Z,16.57
2023-04-29T10:07:56.366Z,16.81
2023-04-29T10:10:30.660Z,17.04
2023-04-29T10:13:04.751Z,16.95
2023-04-29T10:15:43.730Z,16.70
2023-04-29T10:18:20.626Z,16.62
2023-04-29T10:20:57.123Z,16.79
2023-04-29T10:23:31.044Z,16.86
2023-04-29T10:26:05.528Z,16.84
2023-04-29T10:28:40.253Z,16.89
2023-04-29T10:31:14.260Z,16.61
2023-04-29T10:33:47.668Z,16.67
2023-04-29T10:36:21.513Z,16.70
2023-04-29T10:38:56.825Z,16.49
2023-04-29T10:41:34.242Z,16.31
2023-04-29T10:44:07.367Z,16.19
2023-04-29T10:46:40.101Z,16.29
2023-04-29T10:49:13.174Z,16.60
2023-04-29T10:51:45.691Z,16.39
2023-04-29T10:54:24.796Z,16.37
2023-04-29T10:56:57.524Z,16.54
2023-04-29T10:59:46.384Z,16.64
2023-04-29T11:02:20.153Z,16.71
2023-04-29T11:05:08.805Z,16.60
2023-04-29T11:07:41.181Z,16.67
2023-04-29T11:12:45.989Z,17.38
2023-04-29T11:15:19.084Z,17.62
2023-04-29T11:17:51.591Z,17.80
2023-04-29T11:20:24.168Z,17.45
2023-04-29T11:22:57.193Z,17.63
2023-04-29T11:25:29.737Z,17.83
2023-04-29T11:28:03.352Z,17.86
2023-04-29T11:30:38.060Z,18.08
2023-04-29T11:33:10.522Z,18.01
2023-04-29T11:35:43.280Z,18.10
2023-04-29T11:38:16.033Z,18.14
2023-04-29T11:40:49.381Z,18.02
2023-04-29T11:43:23.246Z,17.78
2023-04-29T11:45:56.331Z,18.04
2023-04-29T11:48:29.694Z,18.03
2023-04-29T11:51:02.042Z,17.94
2023-04-29T11:53:34.906Z,17.87
2023-04-29T11:56:08.694Z,17.50
2023-04-29T11:58:43.043Z,17.13
2023-04-29T12:01:16.111Z,17.14
2023-04-29T12:03:49.116Z,17.07
2023-04-29T12:06:21.575Z,16.78
2023-04-29T12:08:53.910Z,16.58
2023-04-29T12:11:27.528Z,16.70
2023-04-29T12:14:01.986Z,16.59
2023-04-29T12:16:35.548Z,16.58
2023-04-29T12:19:09.851Z,16.57
2023-04-29T12:21:49.392Z,16.49
2023-04-29T12:24:21.545Z,16.23
2023-04-29T12:26:55.116Z,16.28
2023-04-29T12:29:27.597Z,16.19
2023-04-29T12:32:01.027Z,16.30
2023-04-29T12:34:33.718Z,16.34
2023-04-29T12:37:06.083Z,16.34
2023-04-29T12:39:38.754Z,16.28
2023-04-29T12:42:15.699Z,16.31
2023-04-29T12:44:48.845Z,16.40
2023-04-29T12:47:21.893Z,16.50
2023-04-29T12:49:57.232Z,16.40
2023-04-29T12:52:30.084Z,16.33
2023-04-29T12:55:02.543Z,16.24
2023-04-29T12:57:34.986Z,16.33
2023-04-29T13:00:08.730Z,16.31
2023-04-29T13:02:41.973Z,16.48
2023-04-29T13:05:14.571Z,16.41
2023-04-29T13:07:46.899Z,16.19
2023-04-29T13:10:19.209Z,16.22
2023-04-29T13:12:51.546Z,16.34
2023-04-29T13:15:24.462Z,16.50
2023-04-29T13:17:58.004Z,16.67
2023-04-29T13:20:30.883Z,16.58
2023-04-29T13:23:03.208Z,16.51
2023-04-29T13:25:35.531Z,16.56
2023-04-29T13:28:08.167Z,16.19
2023-04-29T13:30:41.194Z,16.42
2023-04-29T13:33:14.532Z,16.59
2023-04-29T13:35:48.802Z,16.76
2023-04-29T13:38:22.601Z,16.77
2023-04-29T13:40:56.152Z,16.53
2023-04-29T13:43:37.570Z,16.62
2023-04-29T13:46:11.674Z,16.55
2023-04-29T13:49:17.082Z,16.58
2023-04-29T13:52:16.875Z,16.34
2023-04-29T14:00:19.135Z,16.15
2023-04-29T14:02:33.688Z,16.08
2023-04-29T14:05:09.403Z,16.01
2023-04-29T14:07:41.880Z,16.10
2023-04-29T14:10:14.168Z,16.16
2023-04-29T14:12:46.581Z,16.19
2023-04-29T14:15:18.896Z,16.05
2023-04-29T14:17:51.536Z,15.81
2023-04-29T14:20:24.578Z,15.77
2023-04-29T14:22:56.872Z,15.88
2023-04-29T14:25:30.015Z,16.08
2023-04-29T14:28:03.690Z,16.20
2023-04-29T14:30:35.998Z,16.32
2023-04-29T14:33:08.431Z,16.03
2023-04-29T14:35:41.390Z,16.17
2023-04-29T14:38:13.704Z,16.27
2023-04-29T14:40:46.759Z,16.37
2023-04-29T14:43:19.164Z,16.43
2023-04-29T14:45:51.477Z,16.05
2023-04-29T14:48:23.888Z,15.77
2023-04-29T14:50:57.191Z,15.81
2023-04-29T14:53:29.547Z,16.01
2023-04-29T14:56:02.971Z,16.17
2023-04-29T14:58:35.322Z,16.14
2023-04-29T15:01:08.211Z,16.24
2023-04-29T15:03:43.902Z,16.36
2023-04-29T15:06:17.637Z,16.50
2023-04-29T15:08:50.019Z,16.62
2023-04-29T15:11:22.386Z,16.66
2023-04-29T15:13:54.717Z,16.41
2023-04-29T15:16:27.918Z,16.37
2023-04-29T15:19:01.002Z,16.39
2023-04-29T15:21:34.955Z,16.35
2023-04-29T15:24:07.929Z,16.35
2023-04-29T15:26:40.299Z,16.36
2023-04-29T15:29:12.729Z,16.37
2023-04-29T15:31:45.244Z,16.36
2023-04-29T15:34:17.563Z,16.35
2023-04-29T15:36:50.741Z,16.06
2023-04-29T15:39:23.184Z,15.88
2023-04-29T15:41:55.983Z,15.74
2023-04-29T15:44:28.969Z,15.64
2023-04-29T15:47:01.346Z,15.43
2023-04-29T15:49:33.634Z,15.65
2023-04-29T15:52:06.616Z,15.76
2023-04-29T15:54:38.997Z,15.78
2023-04-29T15:57:11.302Z,15.79
2023-04-29T15:59:43.621Z,15.74
2023-04-29T16:02:16.021Z,15.79
2023-04-29T16:04:48.300Z,15.81
2023-04-29T16:07:21.280Z,15.84
2023-04-29T16:09:53.771Z,15.83
2023-04-29T16:12:26.339Z,15.87
2023-04-29T16:14:58.943Z,15.86
2023-04-29T16:17:31.670Z,15.86
2023-04-29T16:20:04.738Z,15.83
2023-04-29T16:22:37.716Z,15.81
2023-04-29T16:25:10.801Z,15.83
2023-04-29T16:27:43.044Z,15.80
2023-04-29T16:30:15.386Z,15.77
2023-04-29T16:32:47.747Z,15.71
2023-04-29T16:35:24.391Z,15.70
2023-04-29T16:37:57.461Z,15.66
2023-04-29T16:40:29.830Z,15.57
2023-04-29T16:43:02.133Z,15.53
2023-04-29T16:45:34.465Z,15.35
2023-04-29T16:48:07.645Z,15.11
2023-04-29T16:50:40.067Z,15.09
2023-04-29T16:53:13.313Z,14.96
2023-04-29T16:55:45.748Z,14.88
2023-04-29T16:58:18.656Z,14.89
2023-04-29T17:00:52.500Z,14.88
2023-04-29T17:03:24.906Z,14.85
2023-04-29T17:05:58.421Z,14.85
2023-04-29T17:08:31.554Z,14.77
2023-04-29T17:11:04.607Z,14.74
2023-04-29T17:13:36.977Z,14.67
2023-04-29T17:16:09.387Z,14.64
2023-04-29T17:18:41.917Z,14.50
2023-04-29T17:21:14.687Z,14.44
2023-04-29T17:23:47.868Z,14.33
2023-04-29T17:26:20.579Z,14.25
2023-04-29T17:28:52.876Z,14.19
2023-04-29T17:31:33.034Z,14.13
2023-04-29T17:34:17.431Z,14.07
2023-04-29T17:36:50.782Z,14.00
2023-04-29T17:39:23.798Z,13.95
2023-04-29T17:41:56.397Z,13.91
2023-04-29T17:44:28.692Z,13.88
2023-04-29T17:47:01.451Z,13.80
2023-04-29T17:49:33.762Z,13.73
2023-04-29T17:52:06.093Z,13.63
2023-04-29T17:54:39.556Z,13.54
2023-04-29T17:57:11.847Z,13.53
2023-04-29T17:59:44.156Z,13.56
2023-04-29T18:02:16.428Z,13.58
2023-04-29T18:04:48.779Z,13.43
2023-04-29T18:07:21.077Z,13.43
2023-04-29T18:09:54.273Z,13.44
2023-04-29T18:12:26.847Z,13.41
2023-04-29T18:15:00.031Z,13.41
2023-04-29T18:17:33.435Z,13.38
2023-04-29T18:20:07.453Z,13.32
2023-04-29T18:22:39.800Z,13.26
2023-04-29T18:25:12.764Z,13.28
2023-04-29T18:27:45.073Z,13.28
2023-04-29T18:30:17.574Z,13.27
2023-04-29T18:32:50.022Z,13.27
2023-04-29T18:35:22.595Z,13.21
2023-04-29T18:37:54.895Z,13.16
2023-04-29T18:40:27.939Z,13.11
2023-04-29T18:43:01.362Z,13.07
2023-04-29T18:45:33.745Z,12.88
2023-04-29T18:48:06.219Z,12.96
2023-04-29T18:50:39.390Z,12.94
2023-04-29T18:53:11.885Z,12.89
2023-04-29T18:55:45.363Z,12.79
2023-04-29T18:58:17.713Z,12.88
2023-04-29T19:00:50.217Z,12.86
2023-04-29T19:03:22.580Z,12.86
2023-04-29T19:05:55.017Z,12.82
2023-04-29T19:08:27.387Z,12.73
2023-04-29T19:11:00.988Z,12.70
2023-04-29T19:13:33.330Z,12.75
2023-04-29T19:16:05.977Z,12.73
2023-04-29T19:18:38.328Z,12.69
2023-04-29T19:21:11.123Z,12.63
2023-04-29T19:23:43.619Z,12.62
2023-04-29T19:26:16.637Z,12.67
2023-04-29T19:28:48.902Z,12.64
2023-04-29T19:31:21.252Z,12.54
2023-04-29T19:33:53.627Z,12.52
2023-04-29T19:36:26.078Z,12.44
2023-04-29T19:38:58.599Z,12.34
2023-04-29T19:41:32.713Z,12.33
2023-04-29T19:44:07.000Z,12.35
2023-04-29T19:46:40.354Z,12.39
2023-04-29T19:49:12.665Z,12.32
2023-04-29T19:51:45.067Z,12.27
2023-04-29T19:54:17.564Z,12.28
2023-04-29T19:56:50.542Z,12.28
2023-04-29T19:59:22.912Z,12.30
2023-04-29T20:01:55.281Z,12.34
2023-04-29T20:04:27.672Z,12.31
2023-04-29T20:07:00.941Z,12.30
2023-04-29T20:09:34.461Z,12.20
2023-04-29T20:12:07.436Z,12.15
2023-04-29T20:14:39.800Z,12.15
2023-04-29T20:17:12.768Z,12.11
2023-04-29T20:19:45.232Z,12.05
2023-04-29T20:22:17.758Z,12.07
2023-04-29T20:24:50.124Z,12.05
2023-04-29T20:27:23.129Z,12.04
2023-04-29T20:29:56.373Z,12.05
2023-04-29T20:32:28.819Z,12.04
2023-04-29T20:35:01.562Z,12.04
2023-04-29T20:37:33.887Z,12.03
2023-04-29T20:40:07.788Z,12.00
2023-04-29T20:42:41.141Z,12.00
2023-04-29T20:45:13.512Z,11.96
2023-04-29T20:47:45.870Z,11.96
2023-04-29T20:50:18.576Z,11.97
2023-04-29T20:52:51.776Z,11.94
2023-04-29T20:55:24.278Z,11.91
2023-04-29T20:57:57.224Z,11.92
2023-04-29T21:00:29.604Z,11.89
2023-04-29T21:03:01.994Z,11.86
2023-04-29T21:05:34.342Z,11.82
2023-04-29T21:08:06.645Z,11.82
2023-04-29T21:10:38.998Z,11.78
2023-04-29T21:13:12.578Z,11.73
2023-04-29T21:15:45.314Z,11.72
2023-04-29T21:18:18.132Z,11.74
2023-04-29T21:20:50.590Z,11.73
2023-04-29T21:23:22.881Z,11.69
2023-04-29T21:25:55.433Z,11.62
2023-04-29T21:28:28.446Z,11.61
2023-04-29T21:31:01.042Z,11.61
2023-04-29T21:33:33.400Z,11.50
2023-04-29T21:36:05.943Z,11.53
2023-04-29T21:38:38.194Z,11.54
2023-04-29T21:41:18.595Z,11.43
2023-04-29T21:43:51.757Z,11.44
2023-04-29T21:46:24.898Z,11.40
2023-04-29T21:48:57.800Z,11.36
2023-04-29T21:51:30.988Z,11.37
2023-04-29T21:54:07.543Z,11.32
2023-04-29T21:56:39.879Z,11.28
2023-04-29T21:59:12.894Z,11.28
2023-04-29T22:01:48.378Z,11.25
2023-04-29T22:04:20.902Z,11.23
2023-04-29T22:06:53.265Z,11.26
2023-04-29T22:09:25.637Z,11.16
2023-04-29T22:11:57.959Z,11.15
2023-04-29T22:14:30.944Z,11.14
2023-04-29T22:17:03.250Z,11.11
2023-04-29T22:19:35.570Z,11.04
2023-04-29T22:22:08.205Z,11.03
2023-04-29T22:24:40.558Z,10.99
2023-04-29T22:27:12.909Z,10.94
2023-04-29T22:29:45.827Z,10.88
2023-04-29T22:32:18.202Z,10.84
2023-04-29T22:34:50.947Z,10.77
2023-04-29T22:37:23.261Z,10.74
2023-04-29T22:39:56.178Z,10.69
2023-04-29T22:42:28.798Z,10.60
2023-04-29T22:45:01.805Z,10.63
2023-04-29T22:47:34.201Z,10.60
2023-04-29T22:50:07.473Z,10.58
2023-04-29T22:52:39.822Z,10.49
2023-04-29T22:55:12.401Z,10.51
2023-04-29T22:57:44.661Z,10.51
2023-04-29T23:00:17.908Z,10.51
2023-04-29T23:02:50.243Z,10.40
2023-04-29T23:05:22.545Z,10.33
2023-04-29T23:07:54.850Z,10.26
2023-04-29T23:10:27.309Z,10.25
2023-04-29T23:12:59.912Z,10.15
2023-04-29T23:15:33.307Z,10.07
2023-04-29T23:18:05.686Z,9.96
2023-04-29T23:20:38.261Z,9.91
2023-04-29T23:23:10.541Z,9.87
2023-04-29T23:25:42.930Z,9.77
2023-04-29T23:28:15.979Z,9.70
2023-04-29T23:30:48.977Z,9.68
2023-04-29T23:33:21.478Z,9.56
2023-04-29T23:35:53.996Z,9.54
2023-04-29T23:38:26.309Z,9.49
2023-04-29T23:40:58.649Z,9.48
2023-04-29T23:43:31.428Z,9.44
2023-04-29T23:46:04.528Z,9.38
2023-04-29T23:48:36.894Z,9.27
2023-04-29T23:51:09.401Z,9.25
2023-04-29T23:53:41.732Z,9.22
2023-04-29T23:56:14.006Z,9.10
2023-04-29T23:58:46.375Z,9.11
